sensor_id;sensor_type;location;lat;lon;timestamp;P1;durP1;ratioP1;P2;durP2;ratioP2
10586;SDS011;5341;47.606;7.576;2022-10-16T00:01:43;4.35;;;3.17;;
10586;SDS011;5341;47.606;7.576;2022-10-16T00:04:11;6.60;;;3.38;;
10586;SDS011;5341;47.606;7.576;2022-10-16T00:06:41;6.45;;;3.15;;
10586;SDS011;5341;47.606;7.576;2022-10-16T00:09:09;4.45;;;3.13;;
10586;SDS011;5341;47.606;7.576;2022-10-16T00:11:39;6.57;;;3.38;;
10586;SDS011;5341;47.606;7.576;2022-10-16T00:14:11;4.03;;;3.10;;
10586;SDS011;5341;47.606;7.576;2022-10-16T00:16:40;5.30;;;2.88;;
10586;SDS011;5341;47.606;7.576;2022-10-16T00:19:09;8.13;;;2.95;;
10586;SDS011;5341;47.606;7.576;2022-10-16T00:21:39;4.43;;;2.90;;
10586;SDS011;5341;47.606;7.576;2022-10-16T00:24:08;5.20;;;2.92;;
10586;SDS011;5341;47.606;7.576;2022-10-16T00:26:38;6.60;;;3.20;;
10586;SDS011;5341;47.606;7.576;2022-10-16T00:29:06;5.53;;;2.90;;
10586;SDS011;5341;47.606;7.576;2022-10-16T00:31:34;6.13;;;3.50;;
10586;SDS011;5341;47.606;7.576;2022-10-16T00:34:02;7.43;;;3.30;;
10586;SDS011;5341;47.606;7.576;2022-10-16T00:36:29;5.90;;;2.97;;
10586;SDS011;5341;47.606;7.576;2022-10-16T00:38:59;4.82;;;3.00;;
10586;SDS011;5341;47.606;7.576;2022-10-16T00:41:27;4.35;;;2.85;;
10586;SDS011;5341;47.606;7.576;2022-10-16T00:43:56;4.10;;;2.80;;
10586;SDS011;5341;47.606;7.576;2022-10-16T00:46:26;4.15;;;2.72;;
10586;SDS011;5341;47.606;7.576;2022-10-16T00:48:57;3.60;;;2.80;;
10586;SDS011;5341;47.606;7.576;2022-10-16T00:51:30;3.75;;;2.58;;
10586;SDS011;5341;47.606;7.576;2022-10-16T00:54:01;3.38;;;2.80;;
10586;SDS011;5341;47.606;7.576;2022-10-16T00:56:31;2.65;;;2.38;;
10586;SDS011;5341;47.606;7.576;2022-10-16T00:59:01;3.15;;;2.60;;
10586;SDS011;5341;47.606;7.576;2022-10-16T01:01:31;4.00;;;2.75;;
10586;SDS011;5341;47.606;7.576;2022-10-16T01:03:59;3.47;;;2.60;;
10586;SDS011;5341;47.606;7.576;2022-10-16T01:06:29;3.42;;;2.50;;
10586;SDS011;5341;47.606;7.576;2022-10-16T01:09:09;4.00;;;2.60;;
10586;SDS011;5341;47.606;7.576;2022-10-16T01:11:44;6.18;;;2.70;;
10586;SDS011;5341;47.606;7.576;2022-10-16T01:14:19;4.00;;;2.83;;
10586;SDS011;5341;47.606;7.576;2022-10-16T01:16:55;3.55;;;2.60;;
10586;SDS011;5341;47.606;7.576;2022-10-16T01:19:32;3.22;;;2.65;;
10586;SDS011;5341;47.606;7.576;2022-10-16T01:22:13;3.65;;;2.72;;
10586;SDS011;5341;47.606;7.576;2022-10-16T01:24:43;3.60;;;2.63;;
10586;SDS011;5341;47.606;7.576;2022-10-16T01:27:17;5.35;;;2.67;;
10586;SDS011;5341;47.606;7.576;2022-10-16T01:29:52;4.35;;;2.33;;
10586;SDS011;5341;47.606;7.576;2022-10-16T01:32:25;5.07;;;2.60;;
10586;SDS011;5341;47.606;7.576;2022-10-16T01:35:00;3.13;;;2.50;;
10586;SDS011;5341;47.606;7.576;2022-10-16T01:37:32;3.88;;;2.70;;
10586;SDS011;5341;47.606;7.576;2022-10-16T01:40:05;3.67;;;2.40;;
10586;SDS011;5341;47.606;7.576;2022-10-16T01:42:40;6.55;;;2.72;;
10586;SDS011;5341;47.606;7.576;2022-10-16T01:45:11;4.35;;;2.40;;
10586;SDS011;5341;47.606;7.576;2022-10-16T01:47:43;2.85;;;2.47;;
10586;SDS011;5341;47.606;7.576;2022-10-16T01:50:12;2.40;;;2.00;;
10586;SDS011;5341;47.606;7.576;2022-10-16T01:52:43;3.15;;;2.65;;
10586;SDS011;5341;47.606;7.576;2022-10-16T01:55:17;3.90;;;2.40;;
10586;SDS011;5341;47.606;7.576;2022-10-16T01:57:49;3.13;;;2.22;;
10586;SDS011;5341;47.606;7.576;2022-10-16T02:00:19;2.95;;;2.20;;
10586;SDS011;5341;47.606;7.576;2022-10-16T02:02:49;4.65;;;2.13;;
10586;SDS011;5341;47.606;7.576;2022-10-16T02:05:21;2.58;;;2.38;;
10586;SDS011;5341;47.606;7.576;2022-10-16T02:07:54;4.40;;;2.25;;
10586;SDS011;5341;47.606;7.576;2022-10-16T02:10:22;3.58;;;2.10;;
10586;SDS011;5341;47.606;7.576;2022-10-16T02:12:57;4.28;;;2.00;;
10586;SDS011;5341;47.606;7.576;2022-10-16T02:15:27;2.53;;;2.13;;
10586;SDS011;5341;47.606;7.576;2022-10-16T02:17:55;2.75;;;2.15;;
10586;SDS011;5341;47.606;7.576;2022-10-16T02:20:24;2.78;;;2.10;;
10586;SDS011;5341;47.606;7.576;2022-10-16T02:22:55;3.55;;;2.30;;
10586;SDS011;5341;47.606;7.576;2022-10-16T02:25:26;2.90;;;2.08;;
10586;SDS011;5341;47.606;7.576;2022-10-16T02:28:00;3.67;;;2.25;;
10586;SDS011;5341;47.606;7.576;2022-10-16T02:30:32;3.25;;;2.15;;
10586;SDS011;5341;47.606;7.576;2022-10-16T02:33:03;2.70;;;2.20;;
10586;SDS011;5341;47.606;7.576;2022-10-16T02:35:34;2.20;;;2.00;;
10586;SDS011;5341;47.606;7.576;2022-10-16T02:38:04;2.47;;;2.10;;
10586;SDS011;5341;47.606;7.576;2022-10-16T02:40:32;3.88;;;2.30;;
10586;SDS011;5341;47.606;7.576;2022-10-16T02:43:02;3.40;;;2.00;;
10586;SDS011;5341;47.606;7.576;2022-10-16T02:45:31;4.35;;;2.45;;
10586;SDS011;5341;47.606;7.576;2022-10-16T02:47:59;2.30;;;2.10;;
10586;SDS011;5341;47.606;7.576;2022-10-16T02:50:26;2.38;;;2.03;;
10586;SDS011;5341;47.606;7.576;2022-10-16T02:52:54;2.63;;;1.90;;
10586;SDS011;5341;47.606;7.576;2022-10-16T02:55:22;2.40;;;2.05;;
10586;SDS011;5341;47.606;7.576;2022-10-16T02:57:49;3.45;;;2.10;;
10586;SDS011;5341;47.606;7.576;2022-10-16T03:00:19;4.38;;;2.58;;
10586;SDS011;5341;47.606;7.576;2022-10-16T03:02:47;2.92;;;2.03;;
10586;SDS011;5341;47.606;7.576;2022-10-16T03:05:14;2.30;;;2.10;;
10586;SDS011;5341;47.606;7.576;2022-10-16T03:07:42;8.27;;;2.20;;
10586;SDS011;5341;47.606;7.576;2022-10-16T03:10:10;4.63;;;2.30;;
10586;SDS011;5341;47.606;7.576;2022-10-16T03:12:37;3.95;;;2.30;;
10586;SDS011;5341;47.606;7.576;2022-10-16T03:15:05;3.97;;;1.95;;
10586;SDS011;5341;47.606;7.576;2022-10-16T03:17:35;3.97;;;2.65;;
10586;SDS011;5341;47.606;7.576;2022-10-16T03:20:03;3.08;;;2.20;;
10586;SDS011;5341;47.606;7.576;2022-10-16T03:22:31;2.20;;;2.00;;
10586;SDS011;5341;47.606;7.576;2022-10-16T03:24:59;3.75;;;2.35;;
10586;SDS011;5341;47.606;7.576;2022-10-16T03:27:26;2.75;;;2.42;;
10586;SDS011;5341;47.606;7.576;2022-10-16T03:29:54;4.30;;;2.30;;
10586;SDS011;5341;47.606;7.576;2022-10-16T03:32:21;3.70;;;2.20;;
10586;SDS011;5341;47.606;7.576;2022-10-16T03:34:52;6.72;;;2.17;;
10586;SDS011;5341;47.606;7.576;2022-10-16T03:37:21;4.07;;;2.20;;
10586;SDS011;5341;47.606;7.576;2022-10-16T03:39:49;4.90;;;2.40;;
10586;SDS011;5341;47.606;7.576;2022-10-16T03:42:17;4.47;;;2.00;;
10586;SDS011;5341;47.606;7.576;2022-10-16T03:44:44;6.20;;;2.28;;
10586;SDS011;5341;47.606;7.576;2022-10-16T03:47:12;7.32;;;2.45;;
10586;SDS011;5341;47.606;7.576;2022-10-16T03:49:39;3.17;;;1.98;;
10586;SDS011;5341;47.606;7.576;2022-10-16T03:52:08;5.15;;;2.63;;
10586;SDS011;5341;47.606;7.576;2022-10-16T03:54:36;4.07;;;2.05;;
10586;SDS011;5341;47.606;7.576;2022-10-16T03:57:04;4.05;;;2.30;;
10586;SDS011;5341;47.606;7.576;2022-10-16T03:59:32;2.58;;;2.08;;
10586;SDS011;5341;47.606;7.576;2022-10-16T04:02:00;6.05;;;2.20;;
10586;SDS011;5341;47.606;7.576;2022-10-16T04:04:27;3.63;;;2.20;;
10586;SDS011;5341;47.606;7.576;2022-10-16T04:06:55;5.60;;;2.20;;
10586;SDS011;5341;47.606;7.576;2022-10-16T04:09:24;5.88;;;2.67;;
10586;SDS011;5341;47.606;7.576;2022-10-16T04:11:52;3.83;;;2.00;;
10586;SDS011;5341;47.606;7.576;2022-10-16T04:14:21;3.20;;;2.20;;
10586;SDS011;5341;47.606;7.576;2022-10-16T04:16:48;5.50;;;2.30;;
10586;SDS011;5341;47.606;7.576;2022-10-16T04:19:20;3.30;;;2.30;;
10586;SDS011;5341;47.606;7.576;2022-10-16T04:21:48;2.72;;;2.22;;
10586;SDS011;5341;47.606;7.576;2022-10-16T04:24:15;4.50;;;2.25;;
10586;SDS011;5341;47.606;7.576;2022-10-16T04:26:46;3.88;;;2.00;;
10586;SDS011;5341;47.606;7.576;2022-10-16T04:29:17;2.95;;;1.98;;
10586;SDS011;5341;47.606;7.576;2022-10-16T04:31:45;3.97;;;2.13;;
10586;SDS011;5341;47.606;7.576;2022-10-16T04:34:14;5.40;;;2.17;;
10586;SDS011;5341;47.606;7.576;2022-10-16T04:36:42;3.38;;;1.95;;
10586;SDS011;5341;47.606;7.576;2022-10-16T04:39:10;6.28;;;2.00;;
10586;SDS011;5341;47.606;7.576;2022-10-16T04:41:38;3.08;;;1.83;;
10586;SDS011;5341;47.606;7.576;2022-10-16T04:44:07;3.90;;;2.15;;
10586;SDS011;5341;47.606;7.576;2022-10-16T04:46:35;2.70;;;2.03;;
10586;SDS011;5341;47.606;7.576;2022-10-16T04:49:03;4.00;;;1.85;;
10586;SDS011;5341;47.606;7.576;2022-10-16T04:51:31;2.15;;;1.90;;
10586;SDS011;5341;47.606;7.576;2022-10-16T04:53:59;3.05;;;1.80;;
10586;SDS011;5341;47.606;7.576;2022-10-16T04:56:27;4.15;;;1.80;;
10586;SDS011;5341;47.606;7.576;2022-10-16T04:58:54;4.43;;;1.80;;
10586;SDS011;5341;47.606;7.576;2022-10-16T05:01:24;2.28;;;1.95;;
10586;SDS011;5341;47.606;7.576;2022-10-16T05:03:56;2.85;;;2.00;;
10586;SDS011;5341;47.606;7.576;2022-10-16T05:06:27;3.05;;;1.70;;
10586;SDS011;5341;47.606;7.576;2022-10-16T05:08:56;2.30;;;1.50;;
10586;SDS011;5341;47.606;7.576;2022-10-16T05:11:27;2.45;;;1.70;;
10586;SDS011;5341;47.606;7.576;2022-10-16T05:13:55;3.17;;;1.58;;
10586;SDS011;5341;47.606;7.576;2022-10-16T05:16:33;3.05;;;1.70;;
10586;SDS011;5341;47.606;7.576;2022-10-16T05:19:13;2.72;;;1.83;;
10586;SDS011;5341;47.606;7.576;2022-10-16T05:21:41;6.50;;;2.00;;
10586;SDS011;5341;47.606;7.576;2022-10-16T05:24:09;3.40;;;1.90;;
10586;SDS011;5341;47.606;7.576;2022-10-16T05:26:37;2.78;;;2.00;;
10586;SDS011;5341;47.606;7.576;2022-10-16T05:29:05;3.40;;;2.00;;
10586;SDS011;5341;47.606;7.576;2022-10-16T05:31:34;3.75;;;2.13;;
10586;SDS011;5341;47.606;7.576;2022-10-16T05:34:02;5.43;;;2.03;;
10586;SDS011;5341;47.606;7.576;2022-10-16T05:36:32;6.47;;;2.25;;
10586;SDS011;5341;47.606;7.576;2022-10-16T05:39:01;4.25;;;2.10;;
10586;SDS011;5341;47.606;7.576;2022-10-16T05:41:28;4.93;;;2.30;;
10586;SDS011;5341;47.606;7.576;2022-10-16T05:43:56;11.60;;;2.25;;
10586;SDS011;5341;47.606;7.576;2022-10-16T05:46:24;2.17;;;1.98;;
10586;SDS011;5341;47.606;7.576;2022-10-16T05:48:54;10.27;;;2.20;;
10586;SDS011;5341;47.606;7.576;2022-10-16T05:51:24;3.35;;;2.00;;
10586;SDS011;5341;47.606;7.576;2022-10-16T05:53:52;2.10;;;1.90;;
10586;SDS011;5341;47.606;7.576;2022-10-16T05:56:20;2.33;;;1.98;;
10586;SDS011;5341;47.606;7.576;2022-10-16T05:58:49;5.35;;;2.38;;
10586;SDS011;5341;47.606;7.576;2022-10-16T06:01:18;3.58;;;1.85;;
10586;SDS011;5341;47.606;7.576;2022-10-16T06:03:49;3.00;;;2.08;;
10586;SDS011;5341;47.606;7.576;2022-10-16T06:06:21;2.08;;;1.80;;
10586;SDS011;5341;47.606;7.576;2022-10-16T06:08:51;3.00;;;2.10;;
10586;SDS011;5341;47.606;7.576;2022-10-16T06:11:20;2.05;;;1.80;;
10586;SDS011;5341;47.606;7.576;2022-10-16T06:13:50;2.35;;;2.05;;
10586;SDS011;5341;47.606;7.576;2022-10-16T06:16:23;4.50;;;2.08;;
10586;SDS011;5341;47.606;7.576;2022-10-16T06:18:52;2.25;;;2.00;;
10586;SDS011;5341;47.606;7.576;2022-10-16T06:21:23;2.75;;;2.10;;
10586;SDS011;5341;47.606;7.576;2022-10-16T06:23:53;3.60;;;2.15;;
10586;SDS011;5341;47.606;7.576;2022-10-16T06:26:24;2.13;;;1.92;;
10586;SDS011;5341;47.606;7.576;2022-10-16T06:28:53;3.05;;;2.05;;
10586;SDS011;5341;47.606;7.576;2022-10-16T06:31:23;2.13;;;1.92;;
10586;SDS011;5341;47.606;7.576;2022-10-16T06:33:54;2.08;;;1.88;;
10586;SDS011;5341;47.606;7.576;2022-10-16T06:36:24;3.08;;;2.15;;
10586;SDS011;5341;47.606;7.576;2022-10-16T06:38:52;2.15;;;1.83;;
10586;SDS011;5341;47.606;7.576;2022-10-16T06:41:21;2.50;;;2.30;;
10586;SDS011;5341;47.606;7.576;2022-10-16T06:43:49;4.47;;;1.90;;
10586;SDS011;5341;47.606;7.576;2022-10-16T06:46:18;2.65;;;1.98;;
10586;SDS011;5341;47.606;7.576;2022-10-16T06:48:48;2.80;;;1.95;;
10586;SDS011;5341;47.606;7.576;2022-10-16T06:51:17;2.50;;;1.90;;
10586;SDS011;5341;47.606;7.576;2022-10-16T06:53:47;3.05;;;2.00;;
10586;SDS011;5341;47.606;7.576;2022-10-16T06:56:16;4.18;;;2.20;;
10586;SDS011;5341;47.606;7.576;2022-10-16T06:58:46;2.90;;;2.20;;
10586;SDS011;5341;47.606;7.576;2022-10-16T07:01:14;2.13;;;1.92;;
10586;SDS011;5341;47.606;7.576;2022-10-16T07:03:43;3.67;;;2.22;;
10586;SDS011;5341;47.606;7.576;2022-10-16T07:06:13;2.67;;;2.10;;
10586;SDS011;5341;47.606;7.576;2022-10-16T07:08:44;4.50;;;2.30;;
10586;SDS011;5341;47.606;7.576;2022-10-16T07:11:15;5.60;;;2.10;;
10586;SDS011;5341;47.606;7.576;2022-10-16T07:13:44;2.63;;;2.20;;
10586;SDS011;5341;47.606;7.576;2022-10-16T07:16:14;2.45;;;2.00;;
10586;SDS011;5341;47.606;7.576;2022-10-16T07:18:45;4.82;;;2.28;;
10586;SDS011;5341;47.606;7.576;2022-10-16T07:21:14;3.17;;;2.10;;
10586;SDS011;5341;47.606;7.576;2022-10-16T07:23:45;3.25;;;2.10;;
10586;SDS011;5341;47.606;7.576;2022-10-16T07:26:18;2.92;;;1.95;;
10586;SDS011;5341;47.606;7.576;2022-10-16T07:28:46;5.18;;;2.25;;
10586;SDS011;5341;47.606;7.576;2022-10-16T07:31:18;4.25;;;1.92;;
10586;SDS011;5341;47.606;7.576;2022-10-16T07:33:47;3.15;;;2.28;;
10586;SDS011;5341;47.606;7.576;2022-10-16T07:36:16;4.47;;;2.10;;
10586;SDS011;5341;47.606;7.576;2022-10-16T07:38:46;5.13;;;2.17;;
10586;SDS011;5341;47.606;7.576;2022-10-16T07:41:16;6.15;;;2.08;;
10586;SDS011;5341;47.606;7.576;2022-10-16T07:43:46;3.75;;;1.80;;
10586;SDS011;5341;47.606;7.576;2022-10-16T07:46:15;7.80;;;2.20;;
10586;SDS011;5341;47.606;7.576;2022-10-16T07:48:44;3.13;;;2.08;;
10586;SDS011;5341;47.606;7.576;2022-10-16T07:51:14;4.97;;;2.15;;
10586;SDS011;5341;47.606;7.576;2022-10-16T07:53:44;2.35;;;1.92;;
10586;SDS011;5341;47.606;7.576;2022-10-16T07:56:12;4.82;;;2.10;;
10586;SDS011;5341;47.606;7.576;2022-10-16T07:58:44;5.18;;;1.90;;
10586;SDS011;5341;47.606;7.576;2022-10-16T08:01:13;3.53;;;1.98;;
10586;SDS011;5341;47.606;7.576;2022-10-16T08:03:42;3.40;;;1.90;;
10586;SDS011;5341;47.606;7.576;2022-10-16T08:06:10;3.35;;;2.00;;
10586;SDS011;5341;47.606;7.576;2022-10-16T08:08:37;3.20;;;1.90;;
10586;SDS011;5341;47.606;7.576;2022-10-16T08:11:05;3.53;;;2.08;;
10586;SDS011;5341;47.606;7.576;2022-10-16T08:13:33;5.30;;;2.05;;
10586;SDS011;5341;47.606;7.576;2022-10-16T08:16:03;4.47;;;1.95;;
10586;SDS011;5341;47.606;7.576;2022-10-16T08:18:33;6.47;;;1.95;;
10586;SDS011;5341;47.606;7.576;2022-10-16T08:21:01;1.90;;;1.70;;
10586;SDS011;5341;47.606;7.576;2022-10-16T08:23:30;2.88;;;1.70;;
10586;SDS011;5341;47.606;7.576;2022-10-16T08:26:01;2.28;;;1.80;;
10586;SDS011;5341;47.606;7.576;2022-10-16T08:28:30;2.75;;;1.83;;
10586;SDS011;5341;47.606;7.576;2022-10-16T08:31:06;4.68;;;1.90;;
10586;SDS011;5341;47.606;7.576;2022-10-16T08:33:35;3.17;;;1.85;;
10586;SDS011;5341;47.606;7.576;2022-10-16T08:36:03;2.15;;;1.83;;
10586;SDS011;5341;47.606;7.576;2022-10-16T08:38:32;5.80;;;1.98;;
10586;SDS011;5341;47.606;7.576;2022-10-16T08:41:10;5.47;;;1.83;;
10586;SDS011;5341;47.606;7.576;2022-10-16T08:43:57;2.83;;;1.70;;
10586;SDS011;5341;47.606;7.576;2022-10-16T08:46:42;4.47;;;1.80;;
10586;SDS011;5341;47.606;7.576;2022-10-16T08:49:18;3.83;;;2.08;;
10586;SDS011;5341;47.606;7.576;2022-10-16T08:51:45;4.28;;;1.85;;
10586;SDS011;5341;47.606;7.576;2022-10-16T08:54:19;4.28;;;1.70;;
10586;SDS011;5341;47.606;7.576;2022-10-16T08:56:54;5.00;;;2.13;;
10586;SDS011;5341;47.606;7.576;2022-10-16T08:59:22;4.45;;;1.80;;
10586;SDS011;5341;47.606;7.576;2022-10-16T09:01:52;5.22;;;2.00;;
10586;SDS011;5341;47.606;7.576;2022-10-16T09:04:36;5.43;;;2.13;;
10586;SDS011;5341;47.606;7.576;2022-10-16T09:07:19;2.28;;;1.77;;
10586;SDS011;5341;47.606;7.576;2022-10-16T09:10:08;3.75;;;1.80;;
10586;SDS011;5341;47.606;7.576;2022-10-16T09:12:48;4.72;;;1.92;;
10586;SDS011;5341;47.606;7.576;2022-10-16T09:15:23;2.47;;;1.90;;
10586;SDS011;5341;47.606;7.576;2022-10-16T09:18:02;2.38;;;1.58;;
10586;SDS011;5341;47.606;7.576;2022-10-16T09:20:39;4.60;;;1.80;;
10586;SDS011;5341;47.606;7.576;2022-10-16T09:23:15;2.88;;;1.73;;
10586;SDS011;5341;47.606;7.576;2022-10-16T09:25:45;2.00;;;1.80;;
10586;SDS011;5341;47.606;7.576;2022-10-16T09:28:15;7.70;;;2.00;;
10586;SDS011;5341;47.606;7.576;2022-10-16T09:30:44;3.65;;;1.70;;
10586;SDS011;5341;47.606;7.576;2022-10-16T09:33:15;2.72;;;1.85;;
10586;SDS011;5341;47.606;7.576;2022-10-16T09:35:46;7.32;;;2.25;;
10586;SDS011;5341;47.606;7.576;2022-10-16T09:38:24;3.47;;;1.98;;
10586;SDS011;5341;47.606;7.576;2022-10-16T09:40:54;3.40;;;1.67;;
10586;SDS011;5341;47.606;7.576;2022-10-16T09:43:24;2.83;;;1.70;;
10586;SDS011;5341;47.606;7.576;2022-10-16T09:45:57;2.20;;;1.60;;
10586;SDS011;5341;47.606;7.576;2022-10-16T09:48:30;3.13;;;1.70;;
10586;SDS011;5341;47.606;7.576;2022-10-16T09:51:03;1.90;;;1.70;;
10586;SDS011;5341;47.606;7.576;2022-10-16T09:53:38;4.53;;;1.80;;
10586;SDS011;5341;47.606;7.576;2022-10-16T09:56:09;5.03;;;1.70;;
10586;SDS011;5341;47.606;7.576;2022-10-16T09:58:42;1.98;;;1.55;;
10586;SDS011;5341;47.606;7.576;2022-10-16T10:01:16;4.45;;;1.67;;
10586;SDS011;5341;47.606;7.576;2022-10-16T10:03:45;3.72;;;1.58;;
10586;SDS011;5341;47.606;7.576;2022-10-16T10:06:16;1.65;;;1.50;;
10586;SDS011;5341;47.606;7.576;2022-10-16T10:08:58;3.78;;;1.70;;
10586;SDS011;5341;47.606;7.576;2022-10-16T10:11:43;2.65;;;1.60;;
10586;SDS011;5341;47.606;7.576;2022-10-16T10:14:31;2.75;;;1.65;;
10586;SDS011;5341;47.606;7.576;2022-10-16T10:17:12;2.90;;;1.55;;
10586;SDS011;5341;47.606;7.576;2022-10-16T10:19:50;1.50;;;1.40;;
10586;SDS011;5341;47.606;7.576;2022-10-16T10:22:30;3.25;;;1.60;;
10586;SDS011;5341;47.606;7.576;2022-10-16T10:25:15;4.72;;;1.50;;
10586;SDS011;5341;47.606;7.576;2022-10-16T10:27:56;3.25;;;1.50;;
10586;SDS011;5341;47.606;7.576;2022-10-16T10:30:35;2.28;;;1.50;;
10586;SDS011;5341;47.606;7.576;2022-10-16T10:33:20;3.92;;;1.50;;
10586;SDS011;5341;47.606;7.576;2022-10-16T10:35:56;3.17;;;1.55;;
10586;SDS011;5341;47.606;7.576;2022-10-16T10:38:36;2.55;;;1.60;;
10586;SDS011;5341;47.606;7.576;2022-10-16T10:44:20;2.53;;;1.50;;
10586;SDS011;5341;47.606;7.576;2022-10-16T10:46:55;2.60;;;1.70;;
10586;SDS011;5341;47.606;7.576;2022-10-16T10:49:28;1.50;;;1.40;;
10586;SDS011;5341;47.606;7.576;2022-10-16T10:52:19;4.63;;;1.55;;
10586;SDS011;5341;47.606;7.576;2022-10-16T10:55:08;2.33;;;1.40;;
10586;SDS011;5341;47.606;7.576;2022-10-16T10:57:48;2.53;;;1.45;;
10586;SDS011;5341;47.606;7.576;2022-10-16T11:00:28;1.75;;;1.55;;
10586;SDS011;5341;47.606;7.576;2022-10-16T11:03:07;4.60;;;1.40;;
10586;SDS011;5341;47.606;7.576;2022-10-16T11:05:48;3.85;;;1.60;;
10586;SDS011;5341;47.606;7.576;2022-10-16T11:08:23;2.20;;;1.50;;
10586;SDS011;5341;47.606;7.576;2022-10-16T11:10:57;4.40;;;1.60;;
10586;SDS011;5341;47.606;7.576;2022-10-16T11:13:30;5.05;;;1.58;;
10586;SDS011;5341;47.606;7.576;2022-10-16T11:16:02;3.65;;;1.50;;
10586;SDS011;5341;47.606;7.576;2022-10-16T11:18:39;1.80;;;1.50;;
10586;SDS011;5341;47.606;7.576;2022-10-16T11:21:16;2.20;;;1.48;;
10586;SDS011;5341;47.606;7.576;2022-10-16T11:23:48;3.75;;;1.40;;
10586;SDS011;5341;47.606;7.576;2022-10-16T11:26:23;3.75;;;1.55;;
10586;SDS011;5341;47.606;7.576;2022-10-16T11:28:55;3.13;;;1.58;;
10586;SDS011;5341;47.606;7.576;2022-10-16T11:31:28;2.00;;;1.80;;
10586;SDS011;5341;47.606;7.576;2022-10-16T11:34:04;3.28;;;1.50;;
10586;SDS011;5341;47.606;7.576;2022-10-16T11:36:42;3.97;;;1.95;;
10586;SDS011;5341;47.606;7.576;2022-10-16T11:39:19;2.55;;;1.88;;
10586;SDS011;5341;47.606;7.576;2022-10-16T11:41:49;2.22;;;1.75;;
10586;SDS011;5341;47.606;7.576;2022-10-16T11:44:23;3.88;;;1.63;;
10586;SDS011;5341;47.606;7.576;2022-10-16T11:47:06;2.28;;;1.60;;
10586;SDS011;5341;47.606;7.576;2022-10-16T11:49:43;5.45;;;1.65;;
10586;SDS011;5341;47.606;7.576;2022-10-16T11:52:16;2.05;;;1.60;;
10586;SDS011;5341;47.606;7.576;2022-10-16T11:54:50;2.75;;;1.83;;
10586;SDS011;5341;47.606;7.576;2022-10-16T11:57:21;2.72;;;1.70;;
10586;SDS011;5341;47.606;7.576;2022-10-16T11:59:52;4.90;;;1.77;;
10586;SDS011;5341;47.606;7.576;2022-10-16T12:02:31;5.18;;;1.90;;
10586;SDS011;5341;47.606;7.576;2022-10-16T12:05:11;4.70;;;2.30;;
10586;SDS011;5341;47.606;7.576;2022-10-16T12:07:50;4.78;;;2.15;;
10586;SDS011;5341;47.606;7.576;2022-10-16T12:10:28;2.40;;;2.13;;
10586;SDS011;5341;47.606;7.576;2022-10-16T12:13:02;5.43;;;2.00;;
10586;SDS011;5341;47.606;7.576;2022-10-16T12:15:31;4.22;;;2.20;;
10586;SDS011;5341;47.606;7.576;2022-10-16T12:18:00;4.88;;;2.00;;
10586;SDS011;5341;47.606;7.576;2022-10-16T12:20:29;5.30;;;1.92;;
10586;SDS011;5341;47.606;7.576;2022-10-16T12:22:59;5.57;;;1.98;;
10586;SDS011;5341;47.606;7.576;2022-10-16T12:25:30;4.88;;;1.98;;
10586;SDS011;5341;47.606;7.576;2022-10-16T12:28:00;6.13;;;2.15;;
10586;SDS011;5341;47.606;7.576;2022-10-16T12:30:31;3.83;;;2.10;;
10586;SDS011;5341;47.606;7.576;2022-10-16T12:33:01;3.88;;;1.90;;
10586;SDS011;5341;47.606;7.576;2022-10-16T12:35:30;6.13;;;1.95;;
10586;SDS011;5341;47.606;7.576;2022-10-16T12:38:14;2.80;;;1.92;;
10586;SDS011;5341;47.606;7.576;2022-10-16T12:40:46;3.67;;;2.00;;
10586;SDS011;5341;47.606;7.576;2022-10-16T12:43:25;4.03;;;2.00;;
10586;SDS011;5341;47.606;7.576;2022-10-16T12:45:59;4.07;;;1.88;;
10586;SDS011;5341;47.606;7.576;2022-10-16T12:48:32;4.00;;;2.03;;
10586;SDS011;5341;47.606;7.576;2022-10-16T12:51:09;4.47;;;2.00;;
10586;SDS011;5341;47.606;7.576;2022-10-16T12:53:38;4.38;;;1.98;;
10586;SDS011;5341;47.606;7.576;2022-10-16T12:56:12;4.60;;;2.17;;
10586;SDS011;5341;47.606;7.576;2022-10-16T12:58:52;5.97;;;1.75;;
10586;SDS011;5341;47.606;7.576;2022-10-16T13:01:36;2.58;;;1.63;;
10586;SDS011;5341;47.606;7.576;2022-10-16T13:04:22;6.38;;;1.90;;
10586;SDS011;5341;47.606;7.576;2022-10-16T13:07:15;5.13;;;1.65;;
10586;SDS011;5341;47.606;7.576;2022-10-16T13:10:02;4.88;;;1.92;;
10586;SDS011;5341;47.606;7.576;2022-10-16T13:12:46;7.47;;;2.35;;
10586;SDS011;5341;47.606;7.576;2022-10-16T13:15:37;7.25;;;2.10;;
10586;SDS011;5341;47.606;7.576;2022-10-16T13:18:19;4.85;;;1.70;;
10586;SDS011;5341;47.606;7.576;2022-10-16T13:20:56;6.07;;;1.90;;
10586;SDS011;5341;47.606;7.576;2022-10-16T13:23:34;4.05;;;2.25;;
10586;SDS011;5341;47.606;7.576;2022-10-16T13:26:11;4.75;;;1.73;;
10586;SDS011;5341;47.606;7.576;2022-10-16T13:28:50;4.68;;;1.83;;
10586;SDS011;5341;47.606;7.576;2022-10-16T13:31:18;3.55;;;1.65;;
10586;SDS011;5341;47.606;7.576;2022-10-16T13:33:49;5.30;;;1.95;;
10586;SDS011;5341;47.606;7.576;2022-10-16T13:36:21;6.80;;;1.60;;
10586;SDS011;5341;47.606;7.576;2022-10-16T13:38:57;2.80;;;1.55;;
10586;SDS011;5341;47.606;7.576;2022-10-16T13:41:28;4.60;;;1.75;;
10586;SDS011;5341;47.606;7.576;2022-10-16T13:43:56;4.18;;;1.52;;
10586;SDS011;5341;47.606;7.576;2022-10-16T13:46:25;6.65;;;1.55;;
10586;SDS011;5341;47.606;7.576;2022-10-16T13:48:56;8.02;;;1.80;;
10586;SDS011;5341;47.606;7.576;2022-10-16T13:51:24;2.20;;;1.45;;
10586;SDS011;5341;47.606;7.576;2022-10-16T13:53:53;5.53;;;1.65;;
10586;SDS011;5341;47.606;7.576;2022-10-16T13:56:24;4.20;;;1.65;;
10586;SDS011;5341;47.606;7.576;2022-10-16T13:59:02;7.57;;;2.00;;
10586;SDS011;5341;47.606;7.576;2022-10-16T14:01:31;13.65;;;4.80;;
10586;SDS011;5341;47.606;7.576;2022-10-16T14:04:02;5.03;;;2.10;;
10586;SDS011;5341;47.606;7.576;2022-10-16T14:06:32;4.70;;;1.80;;
10586;SDS011;5341;47.606;7.576;2022-10-16T14:09:02;6.40;;;1.73;;
10586;SDS011;5341;47.606;7.576;2022-10-16T14:11:33;4.78;;;1.83;;
10586;SDS011;5341;47.606;7.576;2022-10-16T14:14:09;5.78;;;2.03;;
10586;SDS011;5341;47.606;7.576;2022-10-16T14:16:40;3.55;;;1.77;;
10586;SDS011;5341;47.606;7.576;2022-10-16T14:19:12;5.13;;;1.90;;
10586;SDS011;5341;47.606;7.576;2022-10-16T14:21:46;4.88;;;2.20;;
10586;SDS011;5341;47.606;7.576;2022-10-16T14:24:13;4.45;;;2.30;;
10586;SDS011;5341;47.606;7.576;2022-10-16T14:26:52;5.25;;;2.08;;
10586;SDS011;5341;47.606;7.576;2022-10-16T14:29:23;8.52;;;2.00;;
10586;SDS011;5341;47.606;7.576;2022-10-16T14:31:57;6.35;;;1.90;;
10586;SDS011;5341;47.606;7.576;2022-10-16T14:34:27;6.93;;;2.30;;
10586;SDS011;5341;47.606;7.576;2022-10-16T14:36:58;6.40;;;1.85;;
10586;SDS011;5341;47.606;7.576;2022-10-16T14:39:32;9.55;;;2.35;;
10586;SDS011;5341;47.606;7.576;2022-10-16T14:42:01;10.07;;;2.20;;
10586;SDS011;5341;47.606;7.576;2022-10-16T14:44:33;9.70;;;2.20;;
10586;SDS011;5341;47.606;7.576;2022-10-16T14:47:07;8.27;;;2.03;;
10586;SDS011;5341;47.606;7.576;2022-10-16T14:49:41;5.47;;;1.80;;
10586;SDS011;5341;47.606;7.576;2022-10-16T14:52:10;3.15;;;1.75;;
10586;SDS011;5341;47.606;7.576;2022-10-16T14:54:39;4.20;;;1.90;;
10586;SDS011;5341;47.606;7.576;2022-10-16T14:57:14;3.33;;;1.80;;
10586;SDS011;5341;47.606;7.576;2022-10-16T14:59:46;7.28;;;1.92;;
10586;SDS011;5341;47.606;7.576;2022-10-16T15:02:18;3.20;;;1.60;;
10586;SDS011;5341;47.606;7.576;2022-10-16T15:04:50;3.85;;;1.85;;
10586;SDS011;5341;47.606;7.576;2022-10-16T15:07:18;2.15;;;1.73;;
10586;SDS011;5341;47.606;7.576;2022-10-16T15:09:46;3.60;;;2.30;;
10586;SDS011;5341;47.606;7.576;2022-10-16T15:12:14;1.83;;;1.63;;
10586;SDS011;5341;47.606;7.576;2022-10-16T15:14:42;7.93;;;2.00;;
10586;SDS011;5341;47.606;7.576;2022-10-16T15:17:12;5.82;;;1.75;;
10586;SDS011;5341;47.606;7.576;2022-10-16T15:19:39;3.05;;;1.73;;
10586;SDS011;5341;47.606;7.576;2022-10-16T15:22:08;6.22;;;1.77;;
10586;SDS011;5341;47.606;7.576;2022-10-16T15:24:38;2.38;;;1.58;;
10586;SDS011;5341;47.606;7.576;2022-10-16T15:27:05;3.10;;;1.80;;
10586;SDS011;5341;47.606;7.576;2022-10-16T15:29:33;3.88;;;2.20;;
10586;SDS011;5341;47.606;7.576;2022-10-16T15:32:01;6.22;;;1.90;;